Pagrindinis puslapis
METAR-TAF:

METAR-TAF

Oro uostai :

Fudžeira, Jungtiniai Arabų Emyratai

platuma: 25-06N, ilguma: 056-20E, Aukštis: 28 m

Dabartinis oras

Ataskaita buvo paskelbta 36 minutes, ne 03:00 UTC
Vėjas 4 kt iš Vakarų
Temperatūra 25°C
Drėgmė 74%
Slėgis 1010 hPa
Matomumas: 5000 m
Mažai debesys ne aukštis 2000 ft
migla,

METAR: OMFJ 220300Z 28004KT 5000 HZ FEW020 25/20 Q1010 A2983

Laikas: 07:36 (03:36 UTC)

Prognozė

Ataskaita buvo paskelbta 4 valandos ir 36 minutes, ne 23:00 UTC
Prognozė galioja nuo 22 metu 00 UTC su 23 metu 06 UTC
Vėjas 3 kt nuo kintamojo kryptimis
Matomumas: 8000 m
Tapsmas
nuo 22 metu 05 UTC su 22 metu 07 UTC
Vėjas 7 kt iš Rytų
Tapsmas
nuo 22 metu 14 UTC su 22 metu 16 UTC
Vėjas 3 kt nuo kintamojo kryptimis
Tapsmas
nuo 20 metu 20 UTC su 22 metu 22 UTC
Vėjas 7 kt iš Vakarų/Šiaurės Vakarų

TAF: OMFJ 212300Z 2200/2306 VRB03KT 8000 NSC BECMG 2205/2207 09007KT BECMG 2214/2216 VRB03KT BECMG 2020/2222 29007KT

Orai ataskaitas ir orų prognozės (METAR, TAF).

turimą stotys yra geltonos ir raudonos taškus žemėlapyje.

Perkelti pele per norėdami pamatyti stoties vardą.

Tada spustelėkite, norėdami matyti oro stebėjimo ir prognozės.

Norėdami pakeisti žemėlapį: spustelėkite ant žalios mygtukų su juodo kryžiaus žemyn,; žalią mygtuką su brūkšneliu, jei norite nutolinti; arba žalių rodyklių gretimoms žemėlapius.


METAR-TAF: